Terminal Aerodrome Forecast
Issued by NWS

Home | Current Version | Previous Version | Text Only | Print | Product List | Glossary On
Versions: 1 2 3 4 5 6 7 8 9 10 11 12 13 14 15 16 17 18 19 20 21 22 23 24 25
000
FTUS45 KMSO 240538
TAFSMN
TAF
KSMN 240538Z 2406/2506 02005KT P6SM VCSH BKN030 OVC070
      TEMPO 2406/2408 4SM -SN BR FEW005 BKN015
     FM241000 30007KT P6SM BKN090
      AMD LTD TO CLD VIS AND WIND=

USA.gov is the U.S. government's official web portal to all federal, state and local government web resources and services.